Latest Weather Observations for Giles*

IDD60801

Issued at 8:21 am CST Monday 1 March 2021 (issued every 10 minutes, with the page automatically refreshed every 10 minutes)

About weather observations | Map of weather stations | Latest weather observations for NT | Other Formats
Station Details ID: 013017 Name: GILES METEOROLOGICAL OFFICE Lat: -25.03 Lon: 128.30 Height: 598.0 m
Data from the previous 72 hours. | See also: Recent months at Giles*

* Giles observations are collected in the South Australia time zone, which includes daylight saving in the summer period. Therefore, Rain since 9am value is with respect to South Australia local time.

Date/Time
CST
Temp
°C
App
Temp
°C
Dew
Point
°C
Rel
Hum
%
Delta-T
°C
Wind Press
QNH
hPa
Press
MSL
hPa
Rain since
9am
mm
Dir  Spd
km/h
Gust
km/h
Spd
kts
Gust
kts
01/08:00am 28.8 25.3 10.1 31 10.8 N 19 24 10 13 1012.0 1007.2 0.0
01/07:30am 26.6 26.4 13.1 43 8.1 NNW 6 7 3 4 1011.8 1007.1 0.0
01/07:00am 26.5 25.5 10.3 36 9.3 NNE 6 9 3 5 1011.5 1006.8 0.0
01/06:30am 24.1 22.3 9.5 39 8.2 E 9 11 5 6 1011.3 1006.6 0.0
01/06:00am 23.7 21.0 9.1 39 8.1 ESE 13 15 7 8 1011.2 1006.5 0.0
01/05:30am 24.7 21.5 8.6 36 8.9 E 15 17 8 9 1010.9 1006.1 0.0
01/05:00am 25.7 22.4 8.1 32 9.7 E 15 20 8 11 1010.9 1006.1 0.0
01/04:30am 26.5 23.6 8.1 31 10.2 ENE 13 20 7 11 1010.9 1006.1 0.0
01/04:00am 26.7 22.4 7.9 30 10.4 E 20 30 11 16 1010.7 1005.9 0.0
01/03:30am 23.5 20.6 9.8 41 7.7 SE 15 19 8 10 1010.7 1005.9 0.0
01/03:00am 25.8 23.1 8.8 34 9.5 E 13 15 7 8 1010.8 1006.0 0.0
01/02:30am 26.3 23.1 8.5 32 9.9 ENE 15 17 8 9 1011.0 1006.2 0.0
01/02:00am 25.0 23.0 10.0 38 8.5 E 11 13 6 7 1011.3 1006.6 0.0
01/01:30am 25.8 23.6 9.5 35 9.2 E 11 13 6 7 1011.5 1006.8 0.0
01/01:00am 26.1 23.6 9.7 35 9.3 E 13 15 7 8 1011.6 1006.9 0.0
01/12:30am 26.2 24.7 10.6 37 9.0 E 9 13 5 7 1011.6 1006.9 0.0
01/12:00am 26.0 24.7 11.2 39 8.6 ENE 9 11 5 6 1012.1 1007.3 0.0
 
Date/Time
CST
Temp
°C
App
Temp
°C
Dew
Point
°C
Rel
Hum
%
Delta-T
°C
Wind Press
QNH
hPa
Press
MSL
hPa
Rain since
9am
mm
Dir  Spd
km/h
Gust
km/h
Spd
kts
Gust
kts
28/11:30pm 26.1 24.7 10.9 38 8.8 E 9 11 5 6 1012.1 1007.3 0.0
28/11:00pm 26.4 25.8 11.8 40 8.6 SE 6 9 3 5 1012.0 1007.2 0.0
28/10:30pm 27.5 25.2 10.6 34 9.8 S 13 17 7 9 1011.7 1007.0 0.0
28/10:00pm 28.7 24.8 9.5 30 11.0 SSW 20 28 11 15 1011.4 1006.7 0.0
28/09:30pm 28.2 25.5 9.0 30 10.9 W 13 41 7 22 1011.1 1006.3 0.0
28/09:00pm 30.2 28.9 6.0 21 13.2 N 2 6 1 3 1010.3 1005.5 0.0
28/08:30pm 31.0 29.2 7.2 22 13.3 N 6 6 3 3 1009.8 1005.1 0.0
28/08:00pm 32.6 30.1 4.7 17 15.1 NW 7 7 4 4 1009.5 1004.7 0.0
28/07:30pm 33.0 29.9 3.4 15 15.7 NW 9 11 5 6 1009.3 1004.5 0.0
28/07:00pm 34.3 31.0 2.7 13 16.7 NW 9 11 5 6 1008.9 1004.1 0.0
28/06:30pm 36.4 33.3 1.6 11 18.3 WNW 7 15 4 8 1008.8 1004.0 0.0
28/06:00pm 36.4 31.1 -0.6 9 18.8 NNW 17 22 9 12 1008.6 1003.8 0.0
28/05:30pm 36.8 32.7 0.1 10 18.9 WSW 11 22 6 12 1008.5 1003.7 0.0
28/05:00pm 37.3 33.3 0.6 10 19.1 N 11 17 6 9 1008.5 1003.7 0.0
28/04:30pm 36.7 32.1 1.5 11 18.5 NNW 15 22 8 12 1008.6 1003.8 0.0
28/04:00pm 37.7 34.3 2.1 11 19.0 NW 9 20 5 11 1008.8 1004.0 0.0
28/03:30pm 37.3 34.0 2.7 11 18.6 WNW 9 22 5 12 1009.1 1004.3 0.0
28/03:00pm 37.2 32.5 1.2 10 18.9 NNW 15 24 8 13 1009.5 1004.7 0.0
28/02:30pm 36.5 32.8 2.6 12 18.1 WSW 11 19 6 10 1009.8 1005.1 0.0
28/02:00pm 36.8 31.6 2.2 11 18.4 NNW 19 28 10 15 1010.5 1005.7 0.0
28/01:30pm 36.0 31.1 1.7 11 18.0 NNW 17 30 9 16 1010.7 1005.9 0.0
28/01:00pm 36.2 31.0 2.2 12 18.0 NNW 19 32 10 17 1011.0 1006.2 0.0
28/12:30pm 35.7 30.4 3.0 13 17.5 NNW 20 28 11 15 1011.3 1006.6 0.0
28/12:00pm 35.3 29.3 3.5 13 17.1 N 24 39 13 21 1011.5 1006.8 0.0
28/11:30am 35.3 30.9 7.2 17 16.0 NNW 20 30 11 16 1011.8 1007.1 0.0
28/11:00am 33.8 28.6 7.3 19 15.0 N 24 35 13 19 1012.0 1007.2 0.0
28/10:30am 33.1 27.7 8.1 21 14.3 N 26 35 14 19 1012.0 1007.2 0.0
28/10:00am 31.9 25.6 7.3 21 13.8 N 30 39 16 21 1011.7 1007.0 0.0
28/09:30am 31.0 25.3 6.8 22 13.4 N 26 37 14 20 1011.5 1006.8 0.0
28/09:00am 29.9 24.7 5.4 21 13.2 N 22 32 12 17 1011.3 1006.6 0.0
28/08:30am 29.2 23.4 4.4 20 13.1 N 24 33 13 18 1011.0 1006.2 0.0
28/08:00am 28.6 23.7 5.1 22 12.5 N 20 28 11 15 1010.7 1005.9 0.0
28/07:30am 28.0 22.2 4.3 22 12.4 N 24 30 13 16 1010.2 1005.4 0.0
28/07:00am 27.7 21.8 3.7 21 12.4 N 24 32 13 17 1009.6 1004.8 0.0
28/06:30am 27.5 21.9 3.7 21 12.3 N 22 28 12 15 1009.3 1004.5 0.0
28/06:00am 27.5 22.2 3.0 20 12.5 N 20 26 11 14 1009.0 1004.2 0.0
28/05:30am 28.1 22.8 2.9 19 12.9 N 20 26 11 14 1008.9 1004.1 0.0
28/05:00am 28.2 23.0 2.7 19 13.0 N 19 26 10 14 1008.9 1004.1 0.0
28/04:30am 28.4 22.8 1.3 17 13.5 NNE 20 26 11 14 1008.9 1004.1 0.0
28/04:00am 28.8 23.7 0.7 16 13.9 NNE 17 24 9 13 1008.9 1004.1 0.0
28/03:30am 28.1 23.0 0.7 17 13.5 NNE 17 20 9 11 1008.9 1004.1 0.0
28/03:24am 27.6 23.2 0.3 17 13.3 NNE 13 20 7 11 1009.0 1004.2 0.0
28/03:00am 22.6 19.7 4.8 31 9.1 E 9 11 5 6 1009.1 1004.3 0.0
28/02:30am 24.3 20.9 3.8 26 10.4 E 11 15 6 8 1009.3 1004.5 0.0
28/02:00am 25.5 20.3 2.5 22 11.5 E 19 20 10 11 1009.5 1004.7 0.0
28/01:30am 27.1 22.2 2.2 20 12.5 E 17 22 9 12 1009.6 1004.8 0.0
28/01:00am 27.6 22.7 2.2 19 12.8 ENE 17 20 9 11 1009.8 1005.1 0.0
28/12:30am 27.8 22.9 2.2 19 12.9 E 17 22 9 12 1010.2 1005.4 0.0
28/12:00am 28.0 22.7 1.9 18 13.1 ENE 19 22 10 12 1010.3 1005.5 0.0
 
Date/Time
CST
Temp
°C
App
Temp
°C
Dew
Point
°C
Rel
Hum
%
Delta-T
°C
Wind Press
QNH
hPa
Press
MSL
hPa
Rain since
9am
mm
Dir  Spd
km/h
Gust
km/h
Spd
kts
Gust
kts
27/11:30pm 24.5 21.1 5.9 30 9.8 ESE 13 17 7 9 1010.4 1005.6 0.0
27/11:00pm 27.4 24.6 5.1 24 11.8 NE 9 11 5 6 1010.4 1005.6 0.0
27/10:30pm 26.0 23.8 6.4 28 10.5 ENE 7 11 4 6 1010.3 1005.5 0.0
27/10:00pm 29.3 25.6 4.3 20 13.2 NNE 13 15 7 8 1010.0 1005.3 0.0
27/09:30pm 29.2 25.9 4.4 20 13.1 NE 11 13 6 7 1009.7 1005.0 0.0
27/09:00pm 30.2 27.2 4.1 19 13.8 NE 9 13 5 7 1009.4 1004.6 0.0
27/08:30pm 30.3 27.0 4.6 19 13.7 NE 11 13 6 7 1009.1 1004.3 0.0
27/08:00pm 31.4 28.4 4.2 18 14.5 NNE 9 11 5 6 1008.7 1003.9 0.0
27/07:30pm 32.7 30.0 3.9 16 15.4 NNE 7 9 4 5 1008.3 1003.6 0.0
27/07:00pm 33.8 31.3 3.8 15 16.1 NNE 6 7 3 4 1008.0 1003.2 0.0
27/06:30pm 34.7 30.9 -0.8 10 17.8 ENE 9 15 5 8 1007.8 1003.0 0.0
27/06:00pm 35.0 31.7 0.0 11 17.8 ENE 7 13 4 7 1007.7 1002.9 0.0
27/05:30pm 35.8 31.8 -2.4 9 18.8 WSW 9 19 5 10 1007.7 1002.9 0.0
27/05:00pm 35.5 32.1 -0.9 10 18.3 NNW 7 15 4 8 1007.7 1002.9 0.0
27/04:30pm 35.7 32.0 0.2 10 18.2 NE 9 15 5 8 1007.7 1002.9 0.0
27/04:00pm 35.5 31.4 -0.4 10 18.2 SW 11 19 6 10 1007.8 1003.0 0.0
27/03:30pm 34.9 30.8 -0.3 10 17.8 N 11 19 6 10 1008.1 1003.4 0.0
27/03:00pm 35.6 32.8 2.0 12 17.7 SSE 6 13 3 7 1008.5 1003.7 0.0
27/02:30pm 35.2 30.9 -1.8 9 18.3 W 11 20 6 11 1008.9 1004.1 0.0
27/02:00pm 34.7 30.3 0.1 11 17.6 N 13 22 7 12 1009.0 1004.2 0.0
27/01:30pm 35.1 30.0 -1.6 9 18.2 NNW 15 22 8 12 1009.2 1004.4 0.0
27/01:00pm 34.4 28.3 -3.8 8 18.2 NNW 19 28 10 15 1009.5 1004.7 0.0
27/12:30pm 33.8 28.3 -2.1 10 17.5 N 17 22 9 12 1009.8 1005.1 0.0
27/12:00pm 33.3 27.4 -2.6 10 17.3 N 19 32 10 17 1010.3 1005.5 0.0
27/11:30am 32.4 26.4 -1.3 11 16.5 N 20 28 11 15 1010.6 1005.8 0.0
27/11:00am 31.7 26.8 -0.5 12 15.9 N 15 22 8 12 1010.8 1006.0 0.0
27/10:30am 30.9 25.4 0.4 14 15.2 NNE 19 26 10 14 1010.9 1006.1 0.0
27/10:00am 30.0 24.1 -0.6 14 14.9 NNE 20 26 11 14 1010.9 1006.1 0.0
27/09:30am 29.3 27.6 3.9 20 13.3 NNE 2 9 1 5 1010.8 1006.0 0.0
27/09:00am 26.7 26.2 7.9 30 10.4 CALM 0 0 0 0 1010.6 1005.8 0.0
27/08:30am 24.2 23.2 5.4 29 9.8 CALM 0 6 0 3 1010.2 1005.4 0.0
27/08:00am 22.4 22.2 9.0 42 7.4 CALM 0 0 0 0 1009.9 1005.2 0.0
27/07:30am 19.4 17.3 5.9 41 6.9 SE 6 11 3 6 1009.7 1005.0 0.0
27/07:00am 18.3 17.0 4.3 39 6.9 CALM 0 0 0 0 1009.4 1004.6 0.0
27/06:30am 18.2 15.5 3.8 38 7.0 S 7 9 4 5 1009.3 1004.5 0.0
27/06:00am 20.8 17.5 2.7 30 8.8 ENE 9 11 5 6 1008.9 1004.1 0.0
27/05:30am 20.2 17.8 4.1 34 8.0 SW 6 9 3 5 1008.7 1003.9 0.0
27/05:00am 23.6 20.9 0.4 21 11.0 E 4 9 2 5 1008.3 1003.6 0.0
27/04:30am 23.3 18.6 0.9 23 10.7 NE 15 17 8 9 1008.3 1003.6 0.0
27/04:00am 21.9 17.7 1.7 26 9.7 ENE 13 15 7 8 1008.6 1003.8 0.0
27/03:30am 24.1 19.2 -0.4 20 11.5 ENE 15 20 8 11 1008.7 1003.9 0.0
27/03:00am 20.9 16.5 2.5 29 8.9 ESE 15 19 8 10 1008.7 1003.9 0.0
27/02:30am 22.5 17.0 0.8 23 10.3 E 19 22 10 12 1008.9 1004.1 0.0
27/02:11am 19.1 15.8 6.5 43 6.5 SE 13 15 7 8 1009.2 1004.4 0.0
27/02:00am 24.1 19.2 -0.8 19 11.6 ENE 15 19 8 10 1009.2 1004.4 0.0
27/01:30am 23.2 18.7 -0.1 21 10.9 E 13 15 7 8 1009.5 1004.7 0.0
27/01:00am 22.9 19.8 1.2 24 10.4 ESE 7 9 4 5 1009.9 1005.2 0.0
27/12:30am 23.2 21.5 1.7 24 10.4 CALM 0 0 0 0 1010.2 1005.4 0.0
27/12:00am 22.7 21.6 5.2 32 9.0 CALM 0 0 0 0 1010.3 1005.5 0.0
 
Date/Time
CST
Temp
°C
App
Temp
°C
Dew
Point
°C
Rel
Hum
%
Delta-T
°C
Wind Press
QNH
hPa
Press
MSL
hPa
Rain since
9am
mm
Dir  Spd
km/h
Gust
km/h
Spd
kts
Gust
kts
26/11:30pm 23.9 22.5 3.7 27 10.2 CALM 0 0 0 0 1010.3 1005.5 0.0
26/11:00pm 23.1 21.2 6.7 34 8.7 SW 6 7 3 4 1010.5 1005.7 0.0
26/10:30pm 25.2 21.9 0.4 19 11.9 SSE 7 9 4 5 1010.3 1005.5 0.0
26/10:00pm 26.0 22.4 0.6 19 12.3 ESE 9 11 5 6 1010.2 1005.4 0.0
26/09:30pm 26.3 22.8 1.2 19 12.3 ESE 9 11 5 6 1009.9 1005.2 0.0
26/09:00pm 26.8 23.6 0.8 18 12.7 ESE 7 9 4 5 1009.7 1005.0 0.0
26/08:30pm 27.3 24.3 1.9 19 12.7 SSE 7 11 4 6 1009.3 1004.5 0.0
26/08:00pm 28.1 25.3 2.2 19 13.1 SE 6 7 3 4 1009.1 1004.3 0.0
26/07:30pm 28.7 26.0 3.7 20 13.0 SE 7 9 4 5 1008.7 1003.9 0.0
26/07:00pm 30.2 27.4 2.0 16 14.4 S 6 7 3 4 1008.6 1003.8 0.0
26/06:30pm 30.5 29.3 4.7 19 13.8 CALM 0 0 0 0 1008.3 1003.6 0.0
26/06:00pm 31.3 28.5 -0.2 13 15.6 NE 4 7 2 4 1008.3 1003.6 0.0
26/05:30pm 31.7 28.0 -2.8 10 16.4 S 7 17 4 9 1008.0 1003.2 0.0
26/05:00pm 31.9 27.0 -3.7 10 16.7 S 13 19 7 10 1008.0 1003.2 0.0
26/04:30pm 32.1 26.5 -5.9 8 17.2 NNW 15 24 8 13 1008.1 1003.4 0.0
26/04:00pm 32.0 28.4 -3.4 10 16.6 S 6 11 3 6 1008.3 1003.6 0.0
26/03:30pm 32.3 28.5 -4.1 9 17.0 E 7 15 4 8 1008.5 1003.7 0.0
26/03:00pm 32.1 27.1 -4.2 9 16.9 SW 13 20 7 11 1008.8 1004.0 0.0
26/02:53pm 31.8 26.7 -5.2 9 16.9 WSW 13 20 7 11 1008.9 1004.1 0.0
26/02:30pm 31.7 28.0 -2.8 10 16.4 NE 7 13 4 7 1009.3 1004.5 0.0
26/02:15pm 31.6 27.3 -4.7 9 16.7 N 9 17 5 9 1009.5 1004.7 0.0
26/02:00pm 31.6 28.1 -1.7 11 16.1 NNW 7 13 4 7 1009.7 1005.0 0.0
26/01:30pm 31.1 27.2 -1.2 12 15.7 NNW 9 20 5 11 1010.0 1005.3 0.0
26/01:00pm 30.3 25.9 0.2 14 14.9 N 13 26 7 14 1010.4 1005.6 0.0
26/12:30pm 29.7 23.7 -2.7 12 15.2 N 19 28 10 15 1010.8 1006.0 0.0
26/12:00pm 29.8 23.9 -2.0 12 15.1 N 19 28 10 15 1011.0 1006.2 0.0
26/11:30am 29.1 22.7 -2.0 13 14.7 NNE 22 30 12 16 1011.4 1006.7 0.0
26/11:00am 28.7 22.5 0.0 15 14.0 NNE 22 32 12 17 1011.5 1006.8 0.0
26/10:30am 27.8 20.6 -2.3 14 14.0 N 26 37 14 20 1011.8 1007.1 0.0
26/10:00am 27.0 21.5 0.8 18 12.8 NNE 19 30 10 16 1011.7 1007.0 0.0
26/09:30am 26.1 23.1 3.9 24 11.4 ENE 9 15 5 8 1012.0 1007.2 0.0
26/09:00am 24.0 20.3 4.5 28 10.0 E 13 17 7 9 1011.8 1007.1 0.0
26/08:30am 22.1 18.5 4.8 32 8.8 ESE 13 17 7 9 1011.7 1007.0 0.0
26/08:00am 19.9 16.9 6.1 40 7.1 ESE 11 13 6 7 1011.7 1007.0 0.0
26/07:30am 16.4 14.0 7.0 53 4.8 SSE 9 11 5 6 1011.7 1007.0 0.0

Other formats

Comma delimited format used in spreadsheet applications
http://www.bom.gov.au/fwo/IDD60801/IDD60801.94461.axf

JavaScript Object Notation format (JSON) in row-major order
http://www.bom.gov.au/fwo/IDD60801/IDD60801.94461.json

Data quality

Most of these data are generated automatically and are frequently updated. Quality checks on data are not normally performed. It is possible for incorrect values to appear. Refer to information at About Latest Weather Observations and please check the disclaimer before using these data.